Coe, Illinois
Current Conditions -  °F | °C
As of 10:52 PM on Sunday 21 Dec 2014 (Local Time) from KDVN Reporting Station
Overcast Overcast  
Wind Chill: 25°   Ceiling: 5000
Heat Index: 35°   Visibility: 8mi
Dew Point: 30°   Wind: 17mph
Humidity: 82%   Direction: 150°SSE
Pressure: 29.92"   Gusts: NA
Location:  41.595°N, 90.2974°W
Report Text: KDVN 220452Z AUTO 15015KT 8SM FEW025 SCT030 OVC050 02/M01 A2992 RMK AO2 SLP137 T00171011
Loading
Personal Weather Stations






























Interactive Weather Map New forecast layout! Learn more

10-Day Weather Forecast

Advertisements
Track Severe Weather on mobile